sensor_id;sensor_type;location;lat;lon;timestamp;temperature;humidity
55151;DHT22;41041;43.162;20.538;2023-10-13T01:08:33;307.50;2304.00
55151;DHT22;41041;43.162;20.538;2023-10-13T01:11:04;307.50;2304.00
55151;DHT22;41041;43.162;20.538;2023-10-13T01:16:05;307.90;2304.00
55151;DHT22;41041;43.162;20.538;2023-10-13T01:18:33;307.60;2304.00
55151;DHT22;41041;43.162;20.538;2023-10-13T01:21:22;307.40;2304.00
55151;DHT22;41041;43.162;20.538;2023-10-13T01:23:53;307.50;2304.00
55151;DHT22;41041;43.162;20.538;2023-10-13T01:26:19;307.40;2304.00
55151;DHT22;41041;43.162;20.538;2023-10-13T01:29:10;307.40;2304.00
55151;DHT22;41041;43.162;20.538;2023-10-13T01:31:43;307.30;2304.00
55151;DHT22;41041;43.162;20.538;2023-10-13T01:34:40;307.70;2304.00
55151;DHT22;41041;43.162;20.538;2023-10-13T01:37:11;307.40;2304.00
55151;DHT22;41041;43.162;20.538;2023-10-13T02:34:43;281.80;2278.40
55151;DHT22;41041;43.162;20.538;2023-10-13T03:24:31;281.60;2278.40
55151;DHT22;41041;43.162;20.538;2023-10-13T03:36:49;256.50;2252.80
55151;DHT22;41041;43.162;20.538;2023-10-13T03:43:01;256.40;2252.80
55151;DHT22;41041;43.162;20.538;2023-10-13T03:48:57;256.20;2252.80
55151;DHT22;41041;43.162;20.538;2023-10-13T04:01:48;256.60;2252.80
55151;DHT22;41041;43.162;20.538;2023-10-13T04:08:05;231.30;1868.80
55151;DHT22;41041;43.162;20.538;2023-10-13T04:10:49;231.30;2252.80
55151;DHT22;41041;43.162;20.538;2023-10-13T04:13:18;256.00;2252.80
55151;DHT22;41041;43.162;20.538;2023-10-13T04:15:47;256.00;2099.20
55151;DHT22;41041;43.162;20.538;2023-10-13T04:21:48;256.10;2252.80
55151;DHT22;41041;43.162;20.538;2023-10-13T04:24:25;256.10;2099.20
55151;DHT22;41041;43.162;20.538;2023-10-13T04:27:03;256.10;1945.60
55151;DHT22;41041;43.162;20.538;2023-10-13T04:29:44;256.10;2252.80
55151;DHT22;41041;43.162;20.538;2023-10-13T04:32:12;256.10;2252.80
55151;DHT22;41041;43.162;20.538;2023-10-13T04:35:00;256.10;1996.80
55151;DHT22;41041;43.162;20.538;2023-10-13T04:37:55;256.10;2252.80
55151;DHT22;41041;43.162;20.538;2023-10-13T04:40:27;256.10;2252.80
55151;DHT22;41041;43.162;20.538;2023-10-13T04:43:05;256.10;2252.80
55151;DHT22;41041;43.162;20.538;2023-10-13T04:45:51;256.00;2252.80
55151;DHT22;41041;43.162;20.538;2023-10-13T04:48:20;231.30;2252.80
55151;DHT22;41041;43.162;20.538;2023-10-13T04:50:49;256.00;2252.80
55151;DHT22;41041;43.162;20.538;2023-10-13T04:53:23;256.00;2252.80
55151;DHT22;41041;43.162;20.538;2023-10-13T04:56:21;256.10;2252.80
55151;DHT22;41041;43.162;20.538;2023-10-13T04:59:20;256.10;1945.60
55151;DHT22;41041;43.162;20.538;2023-10-13T05:02:03;256.20;2252.80
55151;DHT22;41041;43.162;20.538;2023-10-13T05:04:47;256.00;2252.80
55151;DHT22;41041;43.162;20.538;2023-10-13T05:07:44;231.20;2252.80
55151;DHT22;41041;43.162;20.538;2023-10-13T05:10:28;231.00;2252.80
55151;DHT22;41041;43.162;20.538;2023-10-13T05:13:13;230.90;2022.40
55151;DHT22;41041;43.162;20.538;2023-10-13T05:15:57;231.00;2252.80
55151;DHT22;41041;43.162;20.538;2023-10-13T05:18:42;231.00;2252.80
55151;DHT22;41041;43.162;20.538;2023-10-13T05:21:27;231.00;2252.80
55151;DHT22;41041;43.162;20.538;2023-10-13T05:24:12;231.00;2252.80
55151;DHT22;41041;43.162;20.538;2023-10-13T05:26:56;231.00;2252.80
55151;DHT22;41041;43.162;20.538;2023-10-13T05:29:42;231.10;2252.80
55151;DHT22;41041;43.162;20.538;2023-10-13T05:32:27;256.40;2252.80
55151;DHT22;41041;43.162;20.538;2023-10-13T05:35:11;256.10;2252.80
55151;DHT22;41041;43.162;20.538;2023-10-13T05:37:56;256.20;2252.80
55151;DHT22;41041;43.162;20.538;2023-10-13T05:40:53;256.30;2252.80
55151;DHT22;41041;43.162;20.538;2023-10-13T05:43:38;256.40;2252.80
55151;DHT22;41041;43.162;20.538;2023-10-13T05:46:22;256.60;2252.80
55151;DHT22;41041;43.162;20.538;2023-10-13T05:48:51;256.80;2252.80
55151;DHT22;41041;43.162;20.538;2023-10-13T05:51:29;256.90;2252.80
55151;DHT22;41041;43.162;20.538;2023-10-13T05:54:02;281.60;2278.40
55151;DHT22;41041;43.162;20.538;2023-10-13T05:56:45;256.90;2252.80
55151;DHT22;41041;43.162;20.538;2023-10-13T05:59:30;281.60;2278.40
55151;DHT22;41041;43.162;20.538;2023-10-13T06:02:16;281.60;2278.40
55151;DHT22;41041;43.162;20.538;2023-10-13T06:05:05;281.60;2278.40
55151;DHT22;41041;43.162;20.538;2023-10-13T06:07:49;281.70;2278.40
55151;DHT22;41041;43.162;20.538;2023-10-13T06:10:34;281.70;2278.40
55151;DHT22;41041;43.162;20.538;2023-10-13T06:13:18;281.80;2278.40
55151;DHT22;41041;43.162;20.538;2023-10-13T06:16:09;281.90;2278.40
55151;DHT22;41041;43.162;20.538;2023-10-13T06:18:54;281.90;2278.40
55151;DHT22;41041;43.162;20.538;2023-10-13T06:21:38;281.90;2278.40
55151;DHT22;41041;43.162;20.538;2023-10-13T06:24:23;281.90;2278.40
55151;DHT22;41041;43.162;20.538;2023-10-13T06:27:07;281.90;2278.40
55151;DHT22;41041;43.162;20.538;2023-10-13T06:29:52;282.30;2278.40
55151;DHT22;41041;43.162;20.538;2023-10-13T06:32:21;282.30;2278.40
55151;DHT22;41041;43.162;20.538;2023-10-13T06:34:52;282.40;2278.40
55151;DHT22;41041;43.162;20.538;2023-10-13T06:37:26;282.40;2278.40
55151;DHT22;41041;43.162;20.538;2023-10-13T06:39:57;282.50;2278.40
55151;DHT22;41041;43.162;20.538;2023-10-13T06:42:23;307.20;2304.00
55151;DHT22;41041;43.162;20.538;2023-10-13T06:44:53;307.40;2304.00
55151;DHT22;41041;43.162;20.538;2023-10-13T06:47:20;307.40;2304.00
55151;DHT22;41041;43.162;20.538;2023-10-13T06:49:47;307.60;2304.00
55151;DHT22;41041;43.162;20.538;2023-10-13T06:52:14;307.70;2304.00
55151;DHT22;41041;43.162;20.538;2023-10-13T06:54:41;307.70;2304.00
55151;DHT22;41041;43.162;20.538;2023-10-13T06:57:09;307.80;2304.00
55151;DHT22;41041;43.162;20.538;2023-10-13T06:59:40;307.80;2304.00
55151;DHT22;41041;43.162;20.538;2023-10-13T07:02:07;307.80;2304.00
55151;DHT22;41041;43.162;20.538;2023-10-13T07:04:45;307.90;2304.00
55151;DHT22;41041;43.162;20.538;2023-10-13T07:07:12;307.90;2304.00
55151;DHT22;41041;43.162;20.538;2023-10-13T07:09:44;307.90;2304.00
55151;DHT22;41041;43.162;20.538;2023-10-13T07:12:21;308.00;2304.00
55151;DHT22;41041;43.162;20.538;2023-10-13T07:14:53;308.10;2304.00
55151;DHT22;41041;43.162;20.538;2023-10-13T07:17:29;332.80;2329.60
55151;DHT22;41041;43.162;20.538;2023-10-13T07:19:59;332.90;2329.60
55151;DHT22;41041;43.162;20.538;2023-10-13T07:22:51;333.00;2329.60
55151;DHT22;41041;43.162;20.538;2023-10-13T07:25:29;333.10;2329.60
55151;DHT22;41041;43.162;20.538;2023-10-13T07:28:01;333.20;2329.60
55151;DHT22;41041;43.162;20.538;2023-10-13T07:30:29;333.30;2329.60
55151;DHT22;41041;43.162;20.538;2023-10-13T07:33:05;333.40;2329.60
55151;DHT22;41041;43.162;20.538;2023-10-13T07:35:31;333.50;2329.60
55151;DHT22;41041;43.162;20.538;2023-10-13T07:38:01;333.60;2329.60
55151;DHT22;41041;43.162;20.538;2023-10-13T07:40:27;333.70;2329.60
55151;DHT22;41041;43.162;20.538;2023-10-13T07:43:05;358.40;2329.60
55151;DHT22;41041;43.162;20.538;2023-10-13T07:45:36;358.40;2227.20
55151;DHT22;41041;43.162;20.538;2023-10-13T07:48:06;358.50;2227.20
55151;DHT22;41041;43.162;20.538;2023-10-13T07:50:58;358.60;2252.80
55151;DHT22;41041;43.162;20.538;2023-10-13T07:53:27;358.70;2329.60
55151;DHT22;41041;43.162;20.538;2023-10-13T07:55:55;358.70;2329.60
55151;DHT22;41041;43.162;20.538;2023-10-13T07:58:23;358.80;2329.60
55151;DHT22;41041;43.162;20.538;2023-10-13T08:00:52;358.90;2329.60
55151;DHT22;41041;43.162;20.538;2023-10-13T08:03:34;359.00;2329.60
55151;DHT22;41041;43.162;20.538;2023-10-13T08:08:39;359.20;2099.20
55151;DHT22;41041;43.162;20.538;2023-10-13T08:11:15;359.30;2150.40
55151;DHT22;41041;43.162;20.538;2023-10-13T08:13:56;359.30;2073.60
55151;DHT22;41041;43.162;20.538;2023-10-13T08:16:26;384.00;2329.60
55151;DHT22;41041;43.162;20.538;2023-10-13T08:19:18;384.10;2329.60
55151;DHT22;41041;43.162;20.538;2023-10-13T08:21:45;384.10;2227.20
55151;DHT22;41041;43.162;20.538;2023-10-13T08:24:50;384.20;2252.80
55151;DHT22;41041;43.162;20.538;2023-10-13T08:27:20;384.30;2304.00
55151;DHT22;41041;43.162;20.538;2023-10-13T08:30:15;384.30;2329.60
55151;DHT22;41041;43.162;20.538;2023-10-13T08:32:55;384.40;2329.60
55151;DHT22;41041;43.162;20.538;2023-10-13T08:35:25;384.50;2201.60
55151;DHT22;41041;43.162;20.538;2023-10-13T08:38:02;384.60;2099.20
55151;DHT22;41041;43.162;20.538;2023-10-13T08:40:43;384.60;2176.00
55151;DHT22;41041;43.162;20.538;2023-10-13T08:43:27;384.80;2176.00
55151;DHT22;41041;43.162;20.538;2023-10-13T08:46:09;384.80;2329.60
55151;DHT22;41041;43.162;20.538;2023-10-13T08:48:41;409.80;2355.20
55151;DHT22;41041;43.162;20.538;2023-10-13T08:51:13;409.60;2355.20
55151;DHT22;41041;43.162;20.538;2023-10-13T08:53:59;409.80;2355.20
55151;DHT22;41041;43.162;20.538;2023-10-13T08:56:33;409.80;2355.20
55151;DHT22;41041;43.162;20.538;2023-10-13T08:59:00;410.00;2355.20
55151;DHT22;41041;43.162;20.538;2023-10-13T09:01:34;410.10;2355.20
55151;DHT22;41041;43.162;20.538;2023-10-13T09:04:25;410.20;2355.20
55151;DHT22;41041;43.162;20.538;2023-10-13T09:07:03;410.30;2355.20
55151;DHT22;41041;43.162;20.538;2023-10-13T09:12:25;410.50;2355.20
55151;DHT22;41041;43.162;20.538;2023-10-13T09:15:14;435.30;2355.20
55151;DHT22;41041;43.162;20.538;2023-10-13T09:17:42;435.40;2355.20
55151;DHT22;41041;43.162;20.538;2023-10-13T09:20:14;435.40;2355.20
55151;DHT22;41041;43.162;20.538;2023-10-13T09:22:52;435.50;2355.20
55151;DHT22;41041;43.162;20.538;2023-10-13T09:25:39;435.70;2355.20
55151;DHT22;41041;43.162;20.538;2023-10-13T09:28:20;435.80;2355.20
55151;DHT22;41041;43.162;20.538;2023-10-13T09:30:55;435.90;2355.20
55151;DHT22;41041;43.162;20.538;2023-10-13T09:33:28;436.00;2355.20
55151;DHT22;41041;43.162;20.538;2023-10-13T09:36:13;436.10;2355.20
55151;DHT22;41041;43.162;20.538;2023-10-13T09:38:42;436.10;2355.20
55151;DHT22;41041;43.162;20.538;2023-10-13T09:41:29;460.90;2380.80
55151;DHT22;41041;43.162;20.538;2023-10-13T09:43:58;461.10;2380.80
55151;DHT22;41041;43.162;20.538;2023-10-13T09:46:26;461.10;2380.80
55151;DHT22;41041;43.162;20.538;2023-10-13T09:49:14;461.30;2380.80
55151;DHT22;41041;43.162;20.538;2023-10-13T09:52:01;461.30;2380.80
55151;DHT22;41041;43.162;20.538;2023-10-13T09:54:38;461.40;2380.80
55151;DHT22;41041;43.162;20.538;2023-10-13T09:57:17;461.50;2380.80
55151;DHT22;41041;43.162;20.538;2023-10-13T09:59:49;461.60;2380.80
55151;DHT22;41041;43.162;20.538;2023-10-13T10:02:18;461.60;2380.80
55151;DHT22;41041;43.162;20.538;2023-10-13T10:04:54;461.70;2380.80
55151;DHT22;41041;43.162;20.538;2023-10-13T10:07:38;486.40;2380.80
55151;DHT22;41041;43.162;20.538;2023-10-13T10:10:05;486.50;2380.80
55151;DHT22;41041;43.162;20.538;2023-10-13T10:13:00;486.60;2380.80
55151;DHT22;41041;43.162;20.538;2023-10-13T10:15:43;486.60;2380.80
55151;DHT22;41041;43.162;20.538;2023-10-13T10:18:19;486.70;2380.80
55151;DHT22;41041;43.162;20.538;2023-10-13T10:23:29;487.20;2380.80
55151;DHT22;41041;43.162;20.538;2023-10-13T10:26:13;487.10;2380.80
55151;DHT22;41041;43.162;20.538;2023-10-13T10:28:56;487.30;2380.80
55151;DHT22;41041;43.162;20.538;2023-10-13T10:34:13;512.20;2380.80
55151;DHT22;41041;43.162;20.538;2023-10-13T10:36:40;512.00;2380.80
55151;DHT22;41041;43.162;20.538;2023-10-13T10:39:08;512.40;2380.80
55151;DHT22;41041;43.162;20.538;2023-10-13T10:41:37;512.10;2380.80
55151;DHT22;41041;43.162;20.538;2023-10-13T10:44:12;512.20;2380.80
55151;DHT22;41041;43.162;20.538;2023-10-13T10:46:56;512.60;2380.80
55151;DHT22;41041;43.162;20.538;2023-10-13T10:49:25;512.60;2380.80
55151;DHT22;41041;43.162;20.538;2023-10-13T10:52:02;512.60;2380.80
55151;DHT22;41041;43.162;20.538;2023-10-13T10:54:31;512.60;2380.80
55151;DHT22;41041;43.162;20.538;2023-10-13T10:57:00;512.60;2380.80
55151;DHT22;41041;43.162;20.538;2023-10-13T10:59:44;512.70;2380.80
55151;DHT22;41041;43.162;20.538;2023-10-13T11:04:41;537.80;2406.40
55151;DHT22;41041;43.162;20.538;2023-10-13T11:07:25;537.60;2406.40
55151;DHT22;41041;43.162;20.538;2023-10-13T11:09:53;537.60;2406.40
55151;DHT22;41041;43.162;20.538;2023-10-13T11:12:30;537.60;2406.40
55151;DHT22;41041;43.162;20.538;2023-10-13T11:15:04;537.90;2406.40
55151;DHT22;41041;43.162;20.538;2023-10-13T11:17:49;537.80;2406.40
55151;DHT22;41041;43.162;20.538;2023-10-13T11:20:23;537.80;2406.40
55151;DHT22;41041;43.162;20.538;2023-10-13T11:22:58;537.90;2406.40
55151;DHT22;41041;43.162;20.538;2023-10-13T11:28:35;538.50;2406.40
55151;DHT22;41041;43.162;20.538;2023-10-13T11:31:03;538.50;2406.40
55151;DHT22;41041;43.162;20.538;2023-10-13T11:33:44;538.30;2406.40
55151;DHT22;41041;43.162;20.538;2023-10-13T11:36:12;538.40;2406.40
55151;DHT22;41041;43.162;20.538;2023-10-13T11:38:48;538.30;2406.40
55151;DHT22;41041;43.162;20.538;2023-10-13T11:41:14;538.30;2406.40
55151;DHT22;41041;43.162;20.538;2023-10-13T11:43:52;538.40;2406.40
55151;DHT22;41041;43.162;20.538;2023-10-13T11:46:29;538.40;2406.40
55151;DHT22;41041;43.162;20.538;2023-10-13T11:49:02;538.40;2406.40
55151;DHT22;41041;43.162;20.538;2023-10-13T11:54:18;563.20;2432.00
55151;DHT22;41041;43.162;20.538;2023-10-13T11:56:48;538.50;2406.40
55151;DHT22;41041;43.162;20.538;2023-10-13T11:59:14;563.30;2432.00
55151;DHT22;41041;43.162;20.538;2023-10-13T12:01:50;563.30;2432.00
55151;DHT22;41041;43.162;20.538;2023-10-13T12:04:34;563.30;2432.00
55151;DHT22;41041;43.162;20.538;2023-10-13T12:07:09;563.30;2432.00
55151;DHT22;41041;43.162;20.538;2023-10-13T12:10:10;563.30;2432.00
55151;DHT22;41041;43.162;20.538;2023-10-13T12:12:59;563.30;2432.00
55151;DHT22;41041;43.162;20.538;2023-10-13T12:15:34;563.30;2432.00
55151;DHT22;41041;43.162;20.538;2023-10-13T12:18:14;563.40;2432.00
55151;DHT22;41041;43.162;20.538;2023-10-13T12:20:40;563.40;2432.00
55151;DHT22;41041;43.162;20.538;2023-10-13T12:23:12;563.50;2432.00
55151;DHT22;41041;43.162;20.538;2023-10-13T12:25:46;563.50;2432.00
55151;DHT22;41041;43.162;20.538;2023-10-13T12:28:34;563.60;2432.00
55151;DHT22;41041;43.162;20.538;2023-10-13T12:31:06;563.70;2432.00
55151;DHT22;41041;43.162;20.538;2023-10-13T12:33:34;563.70;2432.00
55151;DHT22;41041;43.162;20.538;2023-10-13T12:36:04;563.80;2432.00
55151;DHT22;41041;43.162;20.538;2023-10-13T12:38:39;563.80;2432.00
55151;DHT22;41041;43.162;20.538;2023-10-13T12:41:14;563.90;2432.00
55151;DHT22;41041;43.162;20.538;2023-10-13T12:44:16;563.90;2432.00
55151;DHT22;41041;43.162;20.538;2023-10-13T12:47:00;563.90;2432.00
55151;DHT22;41041;43.162;20.538;2023-10-13T12:49:44;564.00;2432.00
55151;DHT22;41041;43.162;20.538;2023-10-13T12:52:10;564.00;2432.00
55151;DHT22;41041;43.162;20.538;2023-10-13T12:54:46;564.00;2432.00
55151;DHT22;41041;43.162;20.538;2023-10-13T12:57:25;588.80;2432.00
55151;DHT22;41041;43.162;20.538;2023-10-13T12:59:51;588.90;2432.00
55151;DHT22;41041;43.162;20.538;2023-10-13T13:02:23;589.00;2432.00
55151;DHT22;41041;43.162;20.538;2023-10-13T13:04:54;589.10;2432.00
55151;DHT22;41041;43.162;20.538;2023-10-13T13:07:24;589.20;2432.00
55151;DHT22;41041;43.162;20.538;2023-10-13T13:09:55;589.30;2432.00
55151;DHT22;41041;43.162;20.538;2023-10-13T13:12:30;589.30;2432.00
55151;DHT22;41041;43.162;20.538;2023-10-13T13:17:22;589.50;2432.00
55151;DHT22;41041;43.162;20.538;2023-10-13T13:19:49;589.70;2432.00
55151;DHT22;41041;43.162;20.538;2023-10-13T13:22:14;614.70;2380.80
55151;DHT22;41041;43.162;20.538;2023-10-13T13:24:44;614.60;2329.60
55151;DHT22;41041;43.162;20.538;2023-10-13T13:27:14;614.60;2252.80
55151;DHT22;41041;43.162;20.538;2023-10-13T13:29:41;614.70;2252.80
55151;DHT22;41041;43.162;20.538;2023-10-13T13:37:09;615.20;2355.20
55151;DHT22;41041;43.162;20.538;2023-10-13T13:39:38;615.30;2278.40
55151;DHT22;41041;43.162;20.538;2023-10-13T13:42:10;615.10;2355.20
55151;DHT22;41041;43.162;20.538;2023-10-13T13:44:36;615.20;2355.20
55151;DHT22;41041;43.162;20.538;2023-10-13T13:47:02;615.30;2278.40
55151;DHT22;41041;43.162;20.538;2023-10-13T13:49:38;615.20;2252.80
55151;DHT22;41041;43.162;20.538;2023-10-13T13:52:12;615.20;2278.40
55151;DHT22;41041;43.162;20.538;2023-10-13T13:54:43;640.00;2278.40
55151;DHT22;41041;43.162;20.538;2023-10-13T13:57:09;640.10;2252.80
55151;DHT22;41041;43.162;20.538;2023-10-13T13:59:35;640.10;2201.60
55151;DHT22;41041;43.162;20.538;2023-10-13T14:02:02;640.10;2227.20
55151;DHT22;41041;43.162;20.538;2023-10-13T14:04:46;640.10;2201.60
55151;DHT22;41041;43.162;20.538;2023-10-13T14:07:13;640.20;2176.00
55151;DHT22;41041;43.162;20.538;2023-10-13T14:09:40;640.20;2176.00
55151;DHT22;41041;43.162;20.538;2023-10-13T14:12:09;640.20;2150.40
55151;DHT22;41041;43.162;20.538;2023-10-13T14:14:53;640.10;2176.00
55151;DHT22;41041;43.162;20.538;2023-10-13T14:17:23;640.30;2176.00
55151;DHT22;41041;43.162;20.538;2023-10-13T14:19:56;640.30;2150.40
55151;DHT22;41041;43.162;20.538;2023-10-13T14:22:22;640.20;2201.60
55151;DHT22;41041;43.162;20.538;2023-10-13T14:24:51;640.30;2227.20
55151;DHT22;41041;43.162;20.538;2023-10-13T14:27:20;640.30;2227.20
55151;DHT22;41041;43.162;20.538;2023-10-13T14:29:51;640.30;2304.00
55151;DHT22;41041;43.162;20.538;2023-10-13T14:32:20;640.30;2278.40
55151;DHT22;41041;43.162;20.538;2023-10-13T14:34:50;640.30;2329.60
55151;DHT22;41041;43.162;20.538;2023-10-13T14:37:20;640.30;2329.60
55151;DHT22;41041;43.162;20.538;2023-10-13T14:39:55;640.40;2278.40
55151;DHT22;41041;43.162;20.538;2023-10-13T14:42:26;640.40;2329.60
55151;DHT22;41041;43.162;20.538;2023-10-13T14:44:52;640.30;2355.20
55151;DHT22;41041;43.162;20.538;2023-10-13T14:47:26;640.30;2355.20
55151;DHT22;41041;43.162;20.538;2023-10-13T14:49:53;640.40;2329.60
55151;DHT22;41041;43.162;20.538;2023-10-13T14:52:27;640.40;2380.80
55151;DHT22;41041;43.162;20.538;2023-10-13T14:54:57;640.40;2304.00
55151;DHT22;41041;43.162;20.538;2023-10-13T14:57:23;640.40;2329.60
55151;DHT22;41041;43.162;20.538;2023-10-13T14:59:56;640.40;2355.20
55151;DHT22;41041;43.162;20.538;2023-10-13T15:02:23;640.30;2406.40
55151;DHT22;41041;43.162;20.538;2023-10-13T15:04:49;640.40;2432.00
55151;DHT22;41041;43.162;20.538;2023-10-13T15:07:16;640.40;2432.00
55151;DHT22;41041;43.162;20.538;2023-10-13T15:09:46;640.30;2432.00
55151;DHT22;41041;43.162;20.538;2023-10-13T15:12:36;640.30;2432.00
55151;DHT22;41041;43.162;20.538;2023-10-13T15:15:01;640.40;2432.00
55151;DHT22;41041;43.162;20.538;2023-10-13T15:17:27;640.30;2432.00
55151;DHT22;41041;43.162;20.538;2023-10-13T15:19:54;640.20;2432.00
55151;DHT22;41041;43.162;20.538;2023-10-13T15:22:20;640.00;2432.00
55151;DHT22;41041;43.162;20.538;2023-10-13T15:24:53;615.30;2432.00
55151;DHT22;41041;43.162;20.538;2023-10-13T15:27:37;615.20;2432.00
55151;DHT22;41041;43.162;20.538;2023-10-13T15:30:07;615.00;2432.00
55151;DHT22;41041;43.162;20.538;2023-10-13T15:32:45;614.80;2432.00
55151;DHT22;41041;43.162;20.538;2023-10-13T15:35:11;614.60;2432.00
55151;DHT22;41041;43.162;20.538;2023-10-13T15:37:41;614.40;2432.00
55151;DHT22;41041;43.162;20.538;2023-10-13T15:40:41;589.40;2432.00
55151;DHT22;41041;43.162;20.538;2023-10-13T15:43:08;589.30;2432.00
55151;DHT22;41041;43.162;20.538;2023-10-13T15:45:34;589.00;2432.00
55151;DHT22;41041;43.162;20.538;2023-10-13T15:51:26;564.10;2432.00
55151;DHT22;41041;43.162;20.538;2023-10-13T15:53:52;563.90;2432.00
55151;DHT22;41041;43.162;20.538;2023-10-13T15:56:18;563.70;2432.00
55151;DHT22;41041;43.162;20.538;2023-10-13T15:58:47;563.50;2432.00
55151;DHT22;41041;43.162;20.538;2023-10-13T16:01:14;563.40;2432.00
55151;DHT22;41041;43.162;20.538;2023-10-13T16:03:41;563.30;2432.00
55151;DHT22;41041;43.162;20.538;2023-10-13T16:06:13;538.50;2406.40
55151;DHT22;41041;43.162;20.538;2023-10-13T16:08:39;538.40;2406.40
55151;DHT22;41041;43.162;20.538;2023-10-13T16:11:12;538.30;2406.40
55151;DHT22;41041;43.162;20.538;2023-10-13T16:13:45;537.90;2406.40
55151;DHT22;41041;43.162;20.538;2023-10-13T16:16:21;537.80;2406.40
55151;DHT22;41041;43.162;20.538;2023-10-13T16:18:53;537.70;2406.40
55151;DHT22;41041;43.162;20.538;2023-10-13T16:21:23;537.60;2406.40
55151;DHT22;41041;43.162;20.538;2023-10-13T16:23:49;512.90;2380.80
55151;DHT22;41041;43.162;20.538;2023-10-13T16:26:16;512.80;2380.80
55151;DHT22;41041;43.162;20.538;2023-10-13T16:28:52;512.70;2380.80
55151;DHT22;41041;43.162;20.538;2023-10-13T16:31:20;512.70;2380.80
55151;DHT22;41041;43.162;20.538;2023-10-13T16:33:49;512.60;2380.80
55151;DHT22;41041;43.162;20.538;2023-10-13T16:36:15;512.50;2380.80
55151;DHT22;41041;43.162;20.538;2023-10-13T16:38:41;512.40;2380.80
55151;DHT22;41041;43.162;20.538;2023-10-13T16:41:11;512.20;2380.80
55151;DHT22;41041;43.162;20.538;2023-10-13T16:43:39;512.10;2380.80
55151;DHT22;41041;43.162;20.538;2023-10-13T16:46:09;512.00;2380.80
55151;DHT22;41041;43.162;20.538;2023-10-13T16:48:41;487.20;2380.80
55151;DHT22;41041;43.162;20.538;2023-10-13T16:51:09;487.20;2380.80
55151;DHT22;41041;43.162;20.538;2023-10-13T16:53:41;487.20;2380.80
55151;DHT22;41041;43.162;20.538;2023-10-13T16:56:18;487.10;2380.80
55151;DHT22;41041;43.162;20.538;2023-10-13T16:58:50;486.90;2380.80
55151;DHT22;41041;43.162;20.538;2023-10-13T17:01:20;486.90;2380.80
55151;DHT22;41041;43.162;20.538;2023-10-13T17:03:47;486.80;2380.80
55151;DHT22;41041;43.162;20.538;2023-10-13T17:06:15;486.70;2380.80
55151;DHT22;41041;43.162;20.538;2023-10-13T17:08:42;486.70;2380.80
55151;DHT22;41041;43.162;20.538;2023-10-13T17:11:12;486.70;2380.80
55151;DHT22;41041;43.162;20.538;2023-10-13T17:13:42;486.50;2380.80
55151;DHT22;41041;43.162;20.538;2023-10-13T17:18:45;486.50;2380.80
55151;DHT22;41041;43.162;20.538;2023-10-13T17:23:48;461.70;2380.80
55151;DHT22;41041;43.162;20.538;2023-10-13T17:26:21;461.60;2380.80
55151;DHT22;41041;43.162;20.538;2023-10-13T17:28:49;461.60;2380.80
55151;DHT22;41041;43.162;20.538;2023-10-13T17:31:15;461.60;2380.80
55151;DHT22;41041;43.162;20.538;2023-10-13T17:33:41;461.50;2380.80
55151;DHT22;41041;43.162;20.538;2023-10-13T17:36:37;461.40;2380.80
55151;DHT22;41041;43.162;20.538;2023-10-13T17:39:03;461.40;2380.80
55151;DHT22;41041;43.162;20.538;2023-10-13T17:41:34;461.30;2380.80
55151;DHT22;41041;43.162;20.538;2023-10-13T17:44:00;461.20;2380.80
55151;DHT22;41041;43.162;20.538;2023-10-13T17:46:27;461.10;2380.80
55151;DHT22;41041;43.162;20.538;2023-10-13T17:48:53;461.10;2380.80
55151;DHT22;41041;43.162;20.538;2023-10-13T17:51:21;461.20;2380.80
55151;DHT22;41041;43.162;20.538;2023-10-13T17:53:48;461.00;2380.80
55151;DHT22;41041;43.162;20.538;2023-10-13T17:56:14;461.00;2380.80
55151;DHT22;41041;43.162;20.538;2023-10-13T17:58:44;461.00;2380.80
55151;DHT22;41041;43.162;20.538;2023-10-13T18:01:12;461.00;2380.80
55151;DHT22;41041;43.162;20.538;2023-10-13T18:03:50;461.00;2380.80
55151;DHT22;41041;43.162;20.538;2023-10-13T18:06:17;460.90;2380.80
55151;DHT22;41041;43.162;20.538;2023-10-13T18:08:48;460.90;2380.80
55151;DHT22;41041;43.162;20.538;2023-10-13T18:11:15;460.90;2380.80
55151;DHT22;41041;43.162;20.538;2023-10-13T18:13:56;460.80;2380.80
55151;DHT22;41041;43.162;20.538;2023-10-13T18:16:23;436.10;2355.20
55151;DHT22;41041;43.162;20.538;2023-10-13T18:18:50;436.00;2355.20
55151;DHT22;41041;43.162;20.538;2023-10-13T18:21:16;436.00;2355.20
55151;DHT22;41041;43.162;20.538;2023-10-13T18:23:46;435.90;2355.20
55151;DHT22;41041;43.162;20.538;2023-10-13T18:26:12;436.00;2355.20
55151;DHT22;41041;43.162;20.538;2023-10-13T18:28:38;435.80;2355.20
55151;DHT22;41041;43.162;20.538;2023-10-13T18:31:05;435.80;2355.20
55151;DHT22;41041;43.162;20.538;2023-10-13T18:33:34;435.70;2355.20
55151;DHT22;41041;43.162;20.538;2023-10-13T18:38:47;435.70;2355.20
55151;DHT22;41041;43.162;20.538;2023-10-13T18:41:14;435.60;2355.20
55151;DHT22;41041;43.162;20.538;2023-10-13T18:43:46;435.40;2355.20
55151;DHT22;41041;43.162;20.538;2023-10-13T18:46:12;435.40;2355.20
55151;DHT22;41041;43.162;20.538;2023-10-13T18:48:40;435.30;2355.20
55151;DHT22;41041;43.162;20.538;2023-10-13T18:51:06;435.20;2355.20
55151;DHT22;41041;43.162;20.538;2023-10-13T18:53:34;435.30;2355.20
55151;DHT22;41041;43.162;20.538;2023-10-13T18:56:17;435.20;2355.20
55151;DHT22;41041;43.162;20.538;2023-10-13T18:58:50;410.50;2355.20
55151;DHT22;41041;43.162;20.538;2023-10-13T19:01:29;410.50;2355.20
55151;DHT22;41041;43.162;20.538;2023-10-13T19:03:59;410.30;2355.20
55151;DHT22;41041;43.162;20.538;2023-10-13T19:06:25;410.50;2355.20
55151;DHT22;41041;43.162;20.538;2023-10-13T19:08:54;410.40;2355.20
55151;DHT22;41041;43.162;20.538;2023-10-13T19:11:20;410.40;2355.20
55151;DHT22;41041;43.162;20.538;2023-10-13T19:13:48;410.40;2355.20
55151;DHT22;41041;43.162;20.538;2023-10-13T19:16:19;410.40;2355.20
55151;DHT22;41041;43.162;20.538;2023-10-13T19:18:46;410.40;2355.20
55151;DHT22;41041;43.162;20.538;2023-10-13T19:21:14;410.40;2355.20